KTOR/TOR METAR and TAF weather

Enter ICAO airport designator
Station Type Date Time Source
KTOR METAR 2019/10/23 12:53 UTC NOAA

KTOR 231253Z AUTO 30011KT 10SM SCT120 03/01 A3000 RMK AO2 SLP153 T00330006


Station Type Date Time Source
KTOR Decoded METAR 2019/10/23 12:53 UTC NOAA

TORRINGTON MUNICIPAL AIRPORT, WY, United States (KTOR) 42-03N 104-09W 1277M
Oct 23, 2019 - 08:53 AM EDT / 2019.10.23 1253 UTC
Wind: from the WNW (300 degrees) at 13 MPH (11 KT):0
Visibility: 10 mile(s):0
Sky conditions: partly cloudy
Temperature: 37.9 F (3.3 C)
Dew Point: 33.1 F (0.6 C)
Relative Humidity: 82%
Pressure (altimeter): 30 in. Hg (1015 hPa)
ob: KTOR 231253Z AUTO 30011KT 10SM SCT120 03/01 A3000 RMK AO2 SLP153 T00330006
cycle: 13

Station Type Date Time Source
KTOR TAF UTC NOAA

Error!

Example: see airport list